createdAt,value
2019-04-07T00:01:14.583Z,61.36
2019-04-07T00:06:13.477Z,62.31
2019-04-07T00:11:10.636Z,62.43
2019-04-07T00:16:07.682Z,60.78
2019-04-07T00:21:07.636Z,61.08
2019-04-07T00:26:05.096Z,61.96
2019-04-07T00:31:02.511Z,61.01
2019-04-07T00:36:00.199Z,61.04
2019-04-07T00:40:57.895Z,62.04
2019-04-07T00:45:55.917Z,62.44
2019-04-07T00:50:53.802Z,62.32
2019-04-07T00:55:50.834Z,61.38
2019-04-07T01:00:48.086Z,61.50
2019-04-07T01:05:45.757Z,61.71
2019-04-07T01:10:43.192Z,61.77
2019-04-07T01:15:40.653Z,62.31
2019-04-07T01:20:37.843Z,63.55
2019-04-07T01:25:35.602Z,62.04
2019-04-07T01:30:32.905Z,62.75
2019-04-07T01:35:30.431Z,63.22
2019-04-07T01:40:27.609Z,63.53
2019-04-07T01:45:33.346Z,63.93
2019-04-07T01:50:31.176Z,63.30
2019-04-07T01:55:34.502Z,63.54
2019-04-07T02:00:45.502Z,62.66
2019-04-07T02:05:58.385Z,64.70
2019-04-07T02:10:50.647Z,63.64
2019-04-07T02:15:49.634Z,63.02
2019-04-07T02:21:04.446Z,63.39
2019-04-07T02:26:22.384Z,63.05
2019-04-07T02:31:24.958Z,63.03
2019-04-07T02:36:31.741Z,63.94
2019-04-07T02:41:48.605Z,62.78
2019-04-07T02:46:54.686Z,65.17
2019-04-07T02:51:56.441Z,65.46
2019-04-07T02:56:56.049Z,66.47
2019-04-07T03:01:56.181Z,63.72
2019-04-07T03:06:59.012Z,65.22
2019-04-07T03:11:56.443Z,63.72
2019-04-07T03:16:58.176Z,62.25
2019-04-07T03:22:06.570Z,61.96
2019-04-07T03:27:10.111Z,62.84
2019-04-07T03:32:27.548Z,62.50
2019-04-07T03:37:38.863Z,63.38
2019-04-07T03:42:37.038Z,63.46
2019-04-07T03:47:39.579Z,63.84
2019-04-07T03:52:46.766Z,62.56
2019-04-07T03:57:46.338Z,63.02
2019-04-07T04:02:57.574Z,62.77
2019-04-07T04:07:59.592Z,63.34
2019-04-07T04:13:01.083Z,62.22
2019-04-07T04:17:58.354Z,63.17
2019-04-07T04:22:55.403Z,63.16
2019-04-07T04:27:52.912Z,62.87
2019-04-07T04:32:50.117Z,63.48
2019-04-07T04:37:51.474Z,63.88
2019-04-07T04:42:46.166Z,63.92
2019-04-07T04:47:43.249Z,64.35
2019-04-07T04:52:40.768Z,63.86
2019-04-07T04:57:38.004Z,63.87
2019-04-07T05:02:35.970Z,64.19
2019-04-07T05:07:46.848Z,64.32
2019-04-07T05:12:32.263Z,63.78
2019-04-07T05:17:29.410Z,62.06
2019-04-07T05:22:26.757Z,62.70
2019-04-07T05:27:23.938Z,62.66
2019-04-07T05:32:21.236Z,63.17
2019-04-07T05:37:18.809Z,61.51
2019-04-07T05:42:16.634Z,55.29
2019-04-07T05:47:14.679Z,55.36
2019-04-07T05:52:12.796Z,52.14
2019-04-07T05:57:09.785Z,51.52
2019-04-07T06:02:08.964Z,51.94
2019-04-07T06:07:06.931Z,50.68
2019-04-07T06:12:08.488Z,48.03
2019-04-07T06:17:03.199Z,49.93
2019-04-07T06:22:00.361Z,48.63
2019-04-07T06:26:57.568Z,47.78
2019-04-07T06:31:54.930Z,47.75
2019-04-07T06:36:55.254Z,47.89
2019-04-07T06:41:52.496Z,46.82
2019-04-07T06:46:51.407Z,45.99
2019-04-07T06:52:02.955Z,47.68
2019-04-07T06:56:58.981Z,47.99
2019-04-07T07:02:22.412Z,48.13
2019-04-07T07:07:19.164Z,48.02
2019-04-07T07:12:38.448Z,48.76
2019-04-07T07:17:34.420Z,46.20
2019-04-07T07:22:41.484Z,43.91
2019-04-07T07:27:41.027Z,44.72
2019-04-07T07:32:38.848Z,42.85
2019-04-07T07:37:36.044Z,44.01
2019-04-07T07:42:37.600Z,44.62
2019-04-07T07:47:38.403Z,43.57
2019-04-07T07:52:37.690Z,44.31
2019-04-07T07:57:39.461Z,42.24
2019-04-07T08:02:36.560Z,44.86
2019-04-07T08:07:34.776Z,42.80
2019-04-07T08:12:34.428Z,43.30
2019-04-07T08:17:33.114Z,41.81
2019-04-07T08:22:33.789Z,39.04
2019-04-07T08:27:31.040Z,40.59
2019-04-07T08:32:30.822Z,36.28
2019-04-07T08:37:28.621Z,36.82
2019-04-07T08:42:25.866Z,37.30
2019-04-07T08:47:23.449Z,36.12
2019-04-07T08:52:21.101Z,37.31
2019-04-07T08:57:18.174Z,36.33
2019-04-07T09:02:15.327Z,36.16
2019-04-07T09:07:12.392Z,37.43
2019-04-07T09:12:10.319Z,37.92
2019-04-07T09:17:08.218Z,35.34
2019-04-07T09:22:12.898Z,34.84
2019-04-07T09:27:23.332Z,34.52
2019-04-07T09:32:32.054Z,34.32
2019-04-07T09:37:36.746Z,32.75
2019-04-07T09:42:35.603Z,34.86
2019-04-07T09:47:34.741Z,32.98
2019-04-07T09:52:52.308Z,34.62
2019-04-07T09:58:09.262Z,33.52
2019-04-07T10:03:23.368Z,32.22
2019-04-07T10:08:22.265Z,33.39
2019-04-07T10:13:21.748Z,34.13
2019-04-07T10:18:20.635Z,32.14
2019-04-07T10:23:19.666Z,33.81
2019-04-07T10:28:26.480Z,34.00
2019-04-07T10:33:23.761Z,33.94
2019-04-07T10:38:28.031Z,32.99
2019-04-07T10:43:35.038Z,32.55
2019-04-07T10:48:40.869Z,34.80
2019-04-07T10:53:40.499Z,32.24
2019-04-07T10:58:41.410Z,32.85
2019-04-07T11:03:40.514Z,33.38
2019-04-07T11:08:47.658Z,32.01
2019-04-07T11:13:53.414Z,33.68
2019-04-07T11:18:54.896Z,32.72
2019-04-07T11:24:05.490Z,32.68
2019-04-07T11:29:11.031Z,33.66
2019-04-07T11:34:15.142Z,31.13
2019-04-07T11:39:24.481Z,32.18
2019-04-07T11:44:31.052Z,29.44
2019-04-07T11:49:46.715Z,29.01
2019-04-07T11:54:57.775Z,29.23
2019-04-07T11:59:57.530Z,29.92
2019-04-07T12:05:11.682Z,32.16
2019-04-07T12:10:27.485Z,30.15
2019-04-07T12:15:35.370Z,28.74
2019-04-07T12:20:47.215Z,30.83
2019-04-07T12:25:52.741Z,29.36
2019-04-07T12:31:05.388Z,28.80
2019-04-07T12:36:06.201Z,28.88
2019-04-07T12:41:19.733Z,30.99
2019-04-07T12:46:16.538Z,31.49
2019-04-07T12:51:32.813Z,29.40
2019-04-07T12:56:47.641Z,28.12
2019-04-07T13:01:47.539Z,28.87
2019-04-07T13:06:48.032Z,27.48
2019-04-07T13:11:49.700Z,31.07
2019-04-07T13:17:05.355Z,29.21
2019-04-07T13:22:21.535Z,28.74
2019-04-07T13:27:38.946Z,28.69
2019-04-07T13:32:42.835Z,30.05
2019-04-07T13:37:41.278Z,30.11
2019-04-07T13:42:37.888Z,28.90
2019-04-07T13:47:43.605Z,30.94
2019-04-07T13:52:46.429Z,28.53
2019-04-07T13:58:00.812Z,29.05
2019-04-07T14:03:01.393Z,28.03
2019-04-07T14:08:07.106Z,28.71
2019-04-07T14:13:13.653Z,29.34
2019-04-07T14:18:13.417Z,31.04
2019-04-07T14:23:30.158Z,30.38
2019-04-07T14:28:35.702Z,28.97
2019-04-07T14:33:46.948Z,28.99
2019-04-07T14:38:47.650Z,29.03
2019-04-07T14:44:00.864Z,30.00
2019-04-07T14:49:00.020Z,29.80
2019-04-07T14:54:02.843Z,30.45
2019-04-07T14:59:08.080Z,31.05
2019-04-07T15:04:05.264Z,31.13
2019-04-07T15:09:08.262Z,32.69
2019-04-07T15:14:06.566Z,31.24
2019-04-07T15:19:04.580Z,32.55
2019-04-07T15:24:04.065Z,32.56
2019-04-07T15:29:04.643Z,33.22
2019-04-07T15:34:04.106Z,33.56
2019-04-07T15:39:01.473Z,33.63
2019-04-07T15:44:05.080Z,32.86
2019-04-07T15:49:00.135Z,33.64
2019-04-07T15:53:57.210Z,34.11
2019-04-07T15:58:58.211Z,34.87
2019-04-07T16:03:54.730Z,34.92
2019-04-07T16:08:51.991Z,35.21
2019-04-07T16:13:49.531Z,35.37
2019-04-07T16:18:46.681Z,35.85
2019-04-07T16:23:48.734Z,34.96
2019-04-07T16:28:46.198Z,35.69
2019-04-07T16:33:42.988Z,36.41
2019-04-07T16:38:40.689Z,37.65
2019-04-07T16:43:39.828Z,38.04
2019-04-07T16:48:40.229Z,38.79
2019-04-07T16:53:39.089Z,40.91
2019-04-07T16:58:38.523Z,41.16
2019-04-07T17:03:35.462Z,43.51
2019-04-07T17:08:32.679Z,43.41
2019-04-07T17:13:38.135Z,43.73
2019-04-07T17:18:38.913Z,44.35
2019-04-07T17:23:36.604Z,44.96
2019-04-07T17:28:36.489Z,46.57
2019-04-07T17:33:36.828Z,48.03
2019-04-07T17:38:41.055Z,46.50
2019-04-07T17:49:01.217Z,46.34
2019-04-07T17:54:20.885Z,47.15
2019-04-07T17:59:34.788Z,46.78
2019-04-07T18:04:42.918Z,47.64
2019-04-07T18:09:42.168Z,48.10
2019-04-07T18:14:57.053Z,49.16
2019-04-07T18:19:53.688Z,50.04
2019-04-07T18:24:53.489Z,49.60
2019-04-07T18:29:50.493Z,50.94
2019-04-07T18:35:06.464Z,51.58
2019-04-07T18:40:08.865Z,51.24
2019-04-07T18:45:12.282Z,51.64
2019-04-07T18:50:23.840Z,52.39
2019-04-07T18:55:37.203Z,52.78
2019-04-07T19:00:45.476Z,53.72
2019-04-07T19:05:58.575Z,51.52
2019-04-07T19:11:14.936Z,52.67
2019-04-07T19:16:21.388Z,52.66
2019-04-07T19:21:25.113Z,54.33
2019-04-07T19:26:34.729Z,53.08
2019-04-07T19:31:48.085Z,54.28
2019-04-07T19:36:56.607Z,54.36
2019-04-07T19:42:04.567Z,52.79
2019-04-07T19:47:17.017Z,54.74
2019-04-07T19:52:20.920Z,54.82
2019-04-07T19:57:23.799Z,55.95
2019-04-07T20:02:22.769Z,55.57
2019-04-07T20:07:35.289Z,55.34
2019-04-07T20:12:43.895Z,54.43
2019-04-07T20:17:52.673Z,55.29
2019-04-07T20:23:06.400Z,56.83
2019-04-07T20:28:08.749Z,56.17
2019-04-07T20:33:24.925Z,57.66
2019-04-07T20:38:40.329Z,54.94
2019-04-07T20:43:37.283Z,56.33
2019-04-07T20:48:53.797Z,57.19
2019-04-07T20:54:03.721Z,58.11
2019-04-07T20:59:08.343Z,59.95
2019-04-07T21:04:12.747Z,58.80
2019-04-07T21:09:11.734Z,58.77
2019-04-07T21:14:11.179Z,58.97
2019-04-07T21:19:17.282Z,56.52
2019-04-07T21:24:33.551Z,58.24
2019-04-07T21:29:35.074Z,57.71
2019-04-07T21:34:43.351Z,57.38
2019-04-07T21:39:45.624Z,57.08
2019-04-07T21:44:51.600Z,59.04
2019-04-07T21:49:51.541Z,57.41
2019-04-07T21:55:09.868Z,57.30
2019-04-07T22:00:29.128Z,58.24
2019-04-07T22:05:42.191Z,57.68
2019-04-07T22:10:39.151Z,58.76
2019-04-07T22:15:46.320Z,60.70
2019-04-07T22:20:35.060Z,58.78
2019-04-07T22:25:38.349Z,58.47
2019-04-07T22:30:39.261Z,59.02
2019-04-07T22:35:39.443Z,59.75
2019-04-07T22:40:37.948Z,59.12
2019-04-07T22:45:35.017Z,60.54
2019-04-07T22:50:35.467Z,60.70
2019-04-07T22:55:31.257Z,61.81
2019-04-07T23:00:28.778Z,60.78
2019-04-07T23:05:26.115Z,58.91
2019-04-07T23:10:23.294Z,58.99
2019-04-07T23:15:20.774Z,58.07
2019-04-07T23:20:17.862Z,61.30
2019-04-07T23:25:15.507Z,61.81
2019-04-07T23:30:13.360Z,60.44
2019-04-07T23:35:10.935Z,59.56
2019-04-07T23:40:08.917Z,58.85
2019-04-07T23:45:06.424Z,59.75
2019-04-07T23:50:07.072Z,60.48
2019-04-07T23:55:04.346Z,58.61
